Etusivu
METAR-TAF:

METAR-TAF

Lentoasemat :

Tébessa, Algeria

Leveyspiiri: 35-29N, Pituuspiiri: 008-08E, korkeus merenpinnasta: 813 m

Tämänhetkinen sää

Tämä raportti tehtiin 43 minuuttia sitten, kello 08.00 UTC
Tuuli 4 kn lännestä
Lämpötila 13°C
Kosteus 54%
Ilmanpaine 1016 hPa
Näkyvyys 10 km tai enemmän
Hajanaisia pilviä 4000 ft:n korkeudessa
Hajonneita pilviä 20000 ft:n korkeudessa

METAR: DABS 200800Z 28004KT 9999 SCT040 BKN200 13/04 Q1016

Aika: 09:43 (08:43 UTC)

Sääennuste

Tämä raportti tehtiin 3 tuntia ja 43 minuuttia sitten, kello 05.00 UTC
Ennuste voimassa 20. päivästä klo 06 UTC - 21. päivään klo 06 UTC
Tuuli 6 kn lännestä/lounaasta
Näkyvyys 10 km tai enemmän
Muutamia pilviä 3300 ft:n korkeudessa
Todennäköisyys 30% :
Ajoittain
20. päivästä klo 12 UTC - 20. päivään klo 18 UTC
Muutamia pilviä 2300 ft:n korkeudessa, Kasvava cumulus-pilvi.

TAF: DABS 200500Z 2006/2106 25006KT 9999 FEW033 PROB30 TEMPO 2012/2018 FEW023TCU

Säähavainnot ja -ennusteet yli 4000 lentoasemalta (METAR- ja TAF-raportit).

Käytössä olevat sääasemat on merkitty karttaan keltaisilla ja punaisilla pisteillä.

Aseta hiiri pisteen päälle nähdäksesi sääaseman nimen.

Klikkaa sitten nähdäksesi säähavainnot ja -ennusteet.

Kartan vaihtaminen: klikkaa mustalla rastilla varustettuja vihreitä pisteitä, niin voit zoomata sisään; viivalla varustettua vihreää pistettä, niin voit zoomata ulos tai vihreitä nuolia, niin pääset viereisille kartoille.


METAR-TAF: